createdAt,value
2023-04-14T00:01:33.040Z,98664.65
2023-04-14T00:04:01.907Z,98663.91
2023-04-14T00:06:30.940Z,98663.46
2023-04-14T00:09:00.549Z,98665.67
2023-04-14T00:11:28.756Z,98669.40
2023-04-14T00:13:57.537Z,98674.05
2023-04-14T00:16:30.291Z,98672.95
2023-04-14T00:18:58.985Z,98671.29
2023-04-14T00:21:27.139Z,98671.00
2023-04-14T00:23:56.855Z,98670.07
2023-04-14T00:26:24.947Z,98672.17
2023-04-14T00:28:52.978Z,98674.75
2023-04-14T00:31:21.119Z,98671.99
2023-04-14T00:33:50.060Z,98669.61
2023-04-14T00:36:18.088Z,98667.53
2023-04-14T00:38:46.431Z,98663.59
2023-04-14T00:41:14.584Z,98665.84
2023-04-14T00:43:44.038Z,98664.13
2023-04-14T00:46:14.651Z,98661.91
2023-04-14T00:48:42.664Z,98661.27
2023-04-14T00:51:11.113Z,98659.02
2023-04-14T00:53:42.138Z,98658.36
2023-04-14T00:56:10.550Z,98660.43
2023-04-14T00:58:41.071Z,98662.06
2023-04-14T01:01:09.079Z,98661.28
2023-04-14T01:03:38.587Z,98665.45
2023-04-14T01:06:10.197Z,98667.79
2023-04-14T01:08:38.370Z,98664.42
2023-04-14T01:11:27.794Z,98664.95
2023-04-14T01:14:09.136Z,98661.03
2023-04-14T01:16:40.923Z,98662.98
2023-04-14T01:19:18.923Z,98664.96
2023-04-14T01:21:47.678Z,98669.70
2023-04-14T01:24:42.009Z,98670.67
2023-04-14T01:27:13.205Z,98675.27
2023-04-14T01:29:49.734Z,98678.35
2023-04-14T01:32:20.588Z,98678.91
2023-04-14T01:34:54.106Z,98681.65
2023-04-14T01:37:30.287Z,98685.63
2023-04-14T01:40:02.840Z,98685.08
2023-04-14T01:42:35.245Z,98683.55
2023-04-14T01:45:26.176Z,98683.01
2023-04-14T01:47:54.663Z,98687.76
2023-04-14T01:50:22.893Z,98688.94
2023-04-14T01:52:54.341Z,98686.50
2023-04-14T01:55:23.886Z,98682.90
2023-04-14T01:57:56.021Z,98682.97
2023-04-14T02:00:24.982Z,98687.85
2023-04-14T02:02:53.990Z,98688.72
2023-04-14T02:05:24.355Z,98693.67
2023-04-14T02:07:53.387Z,98691.46
2023-04-14T02:10:21.938Z,98693.99
2023-04-14T02:12:53.751Z,98690.77
2023-04-14T02:15:41.597Z,98691.56
2023-04-14T02:18:10.377Z,98694.16
2023-04-14T02:20:43.697Z,98694.70
2023-04-14T02:23:30.806Z,98695.70
2023-04-14T02:26:11.096Z,98697.98
2023-04-14T02:28:49.245Z,98700.10
2023-04-14T02:31:21.554Z,98695.84
2023-04-14T02:33:52.893Z,98700.69
2023-04-14T02:36:23.837Z,98709.48
2023-04-14T02:39:03.298Z,98708.73
2023-04-14T02:41:33.131Z,98712.59
2023-04-14T02:44:07.429Z,98718.17
2023-04-14T02:46:42.003Z,98723.48
2023-04-14T02:49:11.711Z,98727.61
2023-04-14T02:51:41.188Z,98728.30
2023-04-14T02:54:09.512Z,98727.11
2023-04-14T02:56:47.041Z,98730.29
2023-04-14T02:59:15.204Z,98734.58
2023-04-14T03:02:02.408Z,98734.19
2023-04-14T03:04:35.472Z,98733.99
2023-04-14T03:07:05.818Z,98737.23
2023-04-14T03:09:33.979Z,98741.04
2023-04-14T03:12:03.523Z,98741.67
2023-04-14T03:14:32.476Z,98744.45
2023-04-14T03:17:01.020Z,98744.89
2023-04-14T03:19:29.606Z,98743.63
2023-04-14T03:22:00.245Z,98745.91
2023-04-14T03:24:31.269Z,98739.73
2023-04-14T03:27:02.470Z,98739.21
2023-04-14T03:29:40.511Z,98736.53
2023-04-14T03:32:12.945Z,98737.88
2023-04-14T03:34:42.147Z,98736.90
2023-04-14T03:37:10.416Z,98741.85
2023-04-14T03:39:43.585Z,98741.45
2023-04-14T03:42:12.541Z,98742.91
2023-04-14T03:44:44.725Z,98742.90
2023-04-14T03:47:16.684Z,98751.15
2023-04-14T03:49:48.172Z,98749.65
2023-04-14T03:52:21.100Z,98748.79
2023-04-14T03:54:49.500Z,98754.30
2023-04-14T03:57:19.419Z,98755.02
2023-04-14T03:59:48.399Z,98761.81
2023-04-14T04:02:17.287Z,98765.78
2023-04-14T04:04:45.710Z,98764.69
2023-04-14T04:07:16.008Z,98766.56
2023-04-14T04:09:46.653Z,98767.48
2023-04-14T04:12:14.593Z,98770.71
2023-04-14T04:14:44.869Z,98774.94
2023-04-14T04:17:15.678Z,98770.72
2023-04-14T04:19:44.043Z,98774.17
2023-04-14T04:22:14.923Z,98776.67
2023-04-14T04:24:43.150Z,98774.20
2023-04-14T04:27:27.065Z,98780.20
2023-04-14T04:29:56.513Z,98781.39
2023-04-14T04:32:25.367Z,98781.05
2023-04-14T04:34:55.820Z,98784.58
2023-04-14T04:37:28.480Z,98792.52
2023-04-14T04:39:58.412Z,98791.21
2023-04-14T04:42:27.099Z,98791.09
2023-04-14T04:44:56.716Z,98794.26
2023-04-14T04:47:25.022Z,98798.64
2023-04-14T04:49:53.385Z,98799.11
2023-04-14T04:52:22.098Z,98806.32
2023-04-14T04:54:52.619Z,98810.09
2023-04-14T04:57:21.164Z,98812.36
2023-04-14T04:59:49.423Z,98813.66
2023-04-14T05:02:19.078Z,98819.38
2023-04-14T05:04:48.994Z,98820.72
2023-04-14T05:07:18.096Z,98820.62
2023-04-14T05:09:53.248Z,98825.66
2023-04-14T05:12:21.441Z,98829.16
2023-04-14T05:14:49.767Z,98829.28
2023-04-14T05:17:24.222Z,98831.05
2023-04-14T05:19:52.220Z,98833.13
2023-04-14T05:22:20.565Z,98836.67
2023-04-14T05:24:50.586Z,98836.32
2023-04-14T05:27:19.358Z,98840.55
2023-04-14T05:29:47.625Z,98838.48
2023-04-14T05:32:18.307Z,98843.36
2023-04-14T05:34:46.655Z,98847.86
2023-04-14T05:37:15.196Z,98849.21
2023-04-14T05:39:45.423Z,98848.89
2023-04-14T05:42:13.831Z,98854.85
2023-04-14T05:44:42.201Z,98848.98
2023-04-14T05:47:10.501Z,98848.27
2023-04-14T05:49:41.016Z,98851.83
2023-04-14T05:52:11.656Z,98851.80
2023-04-14T05:54:40.898Z,98855.98
2023-04-14T05:57:11.056Z,98854.62
2023-04-14T05:59:41.384Z,98857.80
2023-04-14T06:02:09.540Z,98858.73
2023-04-14T06:04:38.157Z,98863.13
2023-04-14T06:07:06.376Z,98867.12
2023-04-14T06:09:34.598Z,98867.23
2023-04-14T06:12:09.493Z,98861.38
2023-04-14T06:14:37.835Z,98862.53
2023-04-14T06:17:10.072Z,98863.54
2023-04-14T06:19:39.293Z,98868.77
2023-04-14T06:22:08.612Z,98874.59
2023-04-14T06:24:36.641Z,98877.14
2023-04-14T06:27:05.479Z,98877.41
2023-04-14T06:29:33.405Z,98878.19
2023-04-14T06:32:02.462Z,98882.33
2023-04-14T06:34:35.524Z,98888.94
2023-04-14T06:37:04.486Z,98885.46
2023-04-14T06:39:32.593Z,98886.92
2023-04-14T06:42:01.050Z,98886.64
2023-04-14T06:44:29.601Z,98888.72
2023-04-14T06:46:57.849Z,98891.42
2023-04-14T06:49:27.619Z,98894.64
2023-04-14T06:51:56.245Z,98896.20
2023-04-14T06:54:26.515Z,98895.84
2023-04-14T06:56:54.595Z,98900.65
2023-04-14T06:59:28.023Z,98904.34
2023-04-14T07:01:58.799Z,98905.59
2023-04-14T07:04:26.982Z,98907.41
2023-04-14T07:07:02.937Z,98912.23
2023-04-14T07:09:32.861Z,98913.27
2023-04-14T07:12:01.665Z,98917.03
2023-04-14T07:14:33.953Z,98913.27
2023-04-14T07:17:02.211Z,98920.80
2023-04-14T07:19:30.268Z,98922.38
2023-04-14T07:21:58.311Z,98922.38
2023-04-14T07:24:27.161Z,98929.26
2023-04-14T07:26:58.504Z,98934.95
2023-04-14T07:29:27.401Z,98935.69
2023-04-14T07:31:59.138Z,98933.52
2023-04-14T07:34:28.133Z,98934.45
2023-04-14T07:36:58.647Z,98935.71
2023-04-14T07:39:26.821Z,98933.51
2023-04-14T07:41:57.781Z,98936.51
2023-04-14T07:44:33.912Z,98935.52
2023-04-14T07:47:02.007Z,98935.83
2023-04-14T07:49:30.141Z,98930.88
2023-04-14T07:51:58.410Z,98930.95
2023-04-14T07:54:26.511Z,98935.98
2023-04-14T07:56:54.900Z,98935.98
2023-04-14T07:59:22.946Z,98933.79
2023-04-14T08:01:51.415Z,98935.05
2023-04-14T08:04:19.820Z,98939.85
2023-04-14T08:06:53.469Z,98942.27
2023-04-14T08:09:22.284Z,98945.81
2023-04-14T08:11:50.338Z,98943.86
2023-04-14T08:14:18.276Z,98949.62
2023-04-14T08:16:54.741Z,98950.88
2023-04-14T08:19:23.171Z,98951.98
2023-04-14T08:21:52.247Z,98956.69
2023-04-14T08:24:20.585Z,98957.08
2023-04-14T08:26:48.718Z,98951.39
2023-04-14T08:29:19.407Z,98949.90
2023-04-14T08:31:51.791Z,98944.19
2023-04-14T08:34:21.230Z,98940.17
2023-04-14T08:36:56.845Z,98938.02
2023-04-14T08:39:31.835Z,98940.47
2023-04-14T08:42:00.584Z,98935.84
2023-04-14T08:44:29.355Z,98932.41
2023-04-14T08:46:58.282Z,98930.65
2023-04-14T08:49:33.442Z,98932.19
2023-04-14T08:52:03.205Z,98931.52
2023-04-14T08:54:31.743Z,98932.39
2023-04-14T08:56:59.865Z,98932.95
2023-04-14T08:59:31.139Z,98932.46
2023-04-14T09:01:59.806Z,98934.73
2023-04-14T09:04:28.772Z,98941.91
2023-04-14T09:06:56.894Z,98946.83
2023-04-14T09:09:31.924Z,98952.47
2023-04-14T09:12:01.334Z,98953.48
2023-04-14T09:14:30.343Z,98958.57
2023-04-14T09:17:02.431Z,98962.21
2023-04-14T09:19:32.180Z,98969.06
2023-04-14T09:22:00.514Z,98967.92
2023-04-14T09:24:32.260Z,98967.13
2023-04-14T09:27:07.444Z,98965.61
2023-04-14T09:29:39.148Z,98966.40
2023-04-14T09:32:13.858Z,98969.86
2023-04-14T09:34:56.497Z,98970.20
2023-04-14T09:37:26.305Z,98972.77
2023-04-14T09:39:55.778Z,98975.23
2023-04-14T09:42:41.143Z,98974.71
2023-04-14T09:45:12.253Z,98976.31
2023-04-14T09:47:41.292Z,98976.30
2023-04-14T09:50:10.282Z,98971.34
2023-04-14T09:52:40.041Z,98971.29
2023-04-14T09:55:13.133Z,98966.61
2023-04-14T09:57:41.748Z,98968.21
2023-04-14T10:00:18.259Z,98966.18
2023-04-14T10:03:09.760Z,98975.48
2023-04-14T10:05:41.581Z,98972.35
2023-04-14T10:08:10.309Z,98980.23
2023-04-14T10:10:38.690Z,98983.70
2023-04-14T10:13:07.826Z,98988.26
2023-04-14T10:15:37.814Z,98993.89
2023-04-14T10:18:06.557Z,98995.23
2023-04-14T10:20:38.122Z,98998.98
2023-04-14T10:23:07.264Z,98997.42
2023-04-14T10:25:35.494Z,99001.60
2023-04-14T10:28:05.898Z,99000.30
2023-04-14T10:30:35.615Z,98997.89
2023-04-14T10:33:06.349Z,98999.91
2023-04-14T10:35:41.040Z,99003.05
2023-04-14T10:38:09.292Z,99004.70
2023-04-14T10:40:52.015Z,99005.31
2023-04-14T10:43:21.588Z,99010.55
2023-04-14T10:45:54.435Z,99007.96
2023-04-14T10:48:33.468Z,99007.86
2023-04-14T10:51:03.166Z,99004.50
2023-04-14T10:53:47.539Z,99002.86
2023-04-14T10:56:15.635Z,99003.93
2023-04-14T10:58:58.419Z,99007.20
2023-04-14T11:01:32.895Z,99009.48
2023-04-14T11:04:20.420Z,99015.70
2023-04-14T11:06:53.616Z,99015.23
2023-04-14T11:09:27.670Z,99021.50
2023-04-14T11:11:56.783Z,99029.70
2023-04-14T11:14:27.828Z,99035.19
2023-04-14T11:17:04.760Z,99037.64
2023-04-14T11:19:33.565Z,99040.19
2023-04-14T11:22:01.663Z,99042.75
2023-04-14T11:24:30.135Z,99037.55
2023-04-14T11:26:58.735Z,99038.92
2023-04-14T11:29:30.602Z,99035.76
2023-04-14T11:32:04.213Z,99037.66
2023-04-14T11:34:33.564Z,99040.25
2023-04-14T11:37:02.387Z,99041.08
2023-04-14T11:39:30.943Z,99042.40
2023-04-14T11:42:02.815Z,99041.42
2023-04-14T11:44:32.012Z,99044.23
2023-04-14T11:47:00.890Z,99039.92
2023-04-14T11:49:35.557Z,99037.95
2023-04-14T11:52:07.805Z,99035.75
2023-04-14T11:54:37.993Z,99039.57
2023-04-14T11:57:12.973Z,99031.58
2023-04-14T11:59:43.867Z,99033.48
2023-04-14T12:02:22.013Z,99031.55
2023-04-14T12:04:51.706Z,99031.48
2023-04-14T12:07:20.274Z,99035.08
2023-04-14T12:09:57.945Z,99033.15
2023-04-14T12:12:29.142Z,99031.76
2023-04-14T12:14:57.718Z,99032.18
2023-04-14T12:17:33.765Z,99035.27
2023-04-14T12:20:05.608Z,99032.98
2023-04-14T12:22:34.538Z,99035.27
2023-04-14T12:25:12.947Z,99035.28
2023-04-14T12:27:42.218Z,99034.61
2023-04-14T12:30:11.080Z,99033.52
2023-04-14T12:32:40.902Z,99032.55
2023-04-14T12:35:09.585Z,99028.99
2023-04-14T12:37:38.810Z,99023.27
2023-04-14T12:40:12.471Z,99024.97
2023-04-14T12:42:49.246Z,99027.99
2023-04-14T12:45:17.399Z,99034.20
2023-04-14T12:47:55.605Z,99032.74
2023-04-14T12:50:30.440Z,99032.91
2023-04-14T12:53:00.116Z,99032.87
2023-04-14T12:55:31.824Z,99033.35
2023-04-14T12:58:00.116Z,99029.85
2023-04-14T13:00:28.384Z,99029.92
2023-04-14T13:02:57.744Z,99036.84
2023-04-14T13:05:31.554Z,99031.66
2023-04-14T13:07:59.776Z,99028.14
2023-04-14T13:10:28.621Z,99032.98
2023-04-14T13:12:56.691Z,99037.98
2023-04-14T13:16:10.602Z,99038.70
2023-04-14T13:18:13.100Z,99037.46
2023-04-14T13:20:41.398Z,99035.77
2023-04-14T13:23:09.630Z,99034.44
2023-04-14T13:25:38.177Z,99035.39
2023-04-14T13:28:09.350Z,99038.71
2023-04-14T13:30:41.406Z,99040.92
2023-04-14T13:33:09.769Z,99046.84
2023-04-14T13:35:37.904Z,99039.85
2023-04-14T13:38:06.658Z,99040.04
2023-04-14T13:40:34.789Z,99034.76
2023-04-14T13:43:05.644Z,99034.45
2023-04-14T13:45:34.203Z,99037.81
2023-04-14T13:48:02.817Z,99044.09
2023-04-14T13:50:34.022Z,99049.87
2023-04-14T13:53:02.074Z,99048.53
2023-04-14T13:55:32.672Z,99049.09
2023-04-14T13:58:00.865Z,99048.80
2023-04-14T14:00:29.196Z,99047.08
2023-04-14T14:02:59.226Z,99044.84
2023-04-14T14:05:27.844Z,99043.04
2023-04-14T14:07:56.477Z,99046.52
2023-04-14T14:10:26.339Z,99055.84
2023-04-14T14:12:54.585Z,99058.34
2023-04-14T14:15:23.691Z,99060.17
2023-04-14T14:17:57.392Z,99054.77
2023-04-14T14:20:25.870Z,99056.14
2023-04-14T14:22:54.113Z,99057.84
2023-04-14T14:25:25.913Z,99061.45
2023-04-14T14:27:55.620Z,99065.63
2023-04-14T14:30:24.082Z,99066.52
2023-04-14T14:32:56.767Z,99071.29
2023-04-14T14:35:25.049Z,99067.95
2023-04-14T14:37:55.243Z,99068.50
2023-04-14T14:40:23.244Z,99072.95
2023-04-14T14:42:52.025Z,99078.72
2023-04-14T14:45:25.180Z,99083.86
2023-04-14T14:47:59.875Z,99085.73
2023-04-14T14:50:28.121Z,99087.40
2023-04-14T14:52:58.965Z,99084.83
2023-04-14T14:55:27.332Z,99088.45
2023-04-14T14:57:55.858Z,99095.11
2023-04-14T15:00:24.497Z,99095.80
2023-04-14T15:03:10.106Z,99101.24
2023-04-14T15:05:38.532Z,99099.82
2023-04-14T15:08:07.447Z,99102.13
2023-04-14T15:10:44.100Z,99105.77
2023-04-14T15:13:13.341Z,99109.77
2023-04-14T15:15:41.306Z,99114.88
2023-04-14T15:18:13.715Z,99105.79
2023-04-14T15:20:42.568Z,99108.84
2023-04-14T15:23:13.581Z,99112.71
2023-04-14T15:25:44.463Z,99116.61
2023-04-14T15:28:13.055Z,99118.88
2023-04-14T15:30:44.063Z,99118.34
2023-04-14T15:33:15.332Z,99120.55
2023-04-14T15:35:51.621Z,99122.63
2023-04-14T15:38:21.007Z,99125.15
2023-04-14T15:40:48.944Z,99128.70
2023-04-14T15:43:18.524Z,99137.17
2023-04-14T15:45:46.557Z,99135.48
2023-04-14T15:48:14.867Z,99138.36
2023-04-14T15:50:45.904Z,99146.54
2023-04-14T15:53:14.706Z,99144.40
2023-04-14T15:55:44.399Z,99148.59
2023-04-14T15:58:12.652Z,99150.85
2023-04-14T16:00:40.810Z,99152.81
2023-04-14T16:03:09.583Z,99155.73
2023-04-14T16:05:44.414Z,99158.02
2023-04-14T16:08:14.693Z,99161.98
2023-04-14T16:10:42.945Z,99170.67
2023-04-14T16:13:23.953Z,99175.04
2023-04-14T16:15:52.523Z,99173.91
2023-04-14T16:18:20.830Z,99175.73
2023-04-14T16:20:50.264Z,99180.16
2023-04-14T16:23:18.419Z,99180.55
2023-04-14T16:25:49.849Z,99183.00
2023-04-14T16:28:18.711Z,99186.88
2023-04-14T16:30:46.728Z,99185.64
2023-04-14T16:33:24.640Z,99182.11
2023-04-14T16:35:52.976Z,99189.52
2023-04-14T16:38:21.702Z,99191.06
2023-04-14T16:40:57.456Z,99200.86
2023-04-14T16:43:27.112Z,99192.11
2023-04-14T16:46:07.096Z,99202.05
2023-04-14T16:48:37.141Z,99203.79
2023-04-14T16:51:10.110Z,99205.94
2023-04-14T16:53:40.430Z,99207.69
2023-04-14T16:56:11.099Z,99209.88
2023-04-14T16:58:45.368Z,99210.63
2023-04-14T17:01:13.758Z,99216.41
2023-04-14T17:03:42.643Z,99222.64
2023-04-14T17:06:12.959Z,99226.05
2023-04-14T17:08:41.996Z,99227.15
2023-04-14T17:11:10.314Z,99230.02
2023-04-14T17:13:38.459Z,99231.88
2023-04-14T17:16:12.007Z,99235.66
2023-04-14T17:18:43.678Z,99238.58
2023-04-14T17:21:11.900Z,99243.85
2023-04-14T17:23:49.389Z,99247.79
2023-04-14T17:26:17.849Z,99243.25
2023-04-14T17:28:46.372Z,99246.84
2023-04-14T17:31:17.765Z,99254.43
2023-04-14T17:33:47.324Z,99261.83
2023-04-14T17:36:16.721Z,99265.03
2023-04-14T17:38:45.997Z,99263.48
2023-04-14T17:41:14.517Z,99266.21
2023-04-14T17:43:48.724Z,99268.38
2023-04-14T17:46:17.716Z,99271.55
2023-04-14T17:48:46.515Z,99273.80
2023-04-14T17:51:17.460Z,99269.27
2023-04-14T17:53:47.819Z,99271.90
2023-04-14T17:56:20.493Z,99275.25
2023-04-14T17:58:51.911Z,99277.33
2023-04-14T18:01:19.954Z,99277.00
2023-04-14T18:03:49.298Z,99281.24
2023-04-14T18:06:17.552Z,99279.64
2023-04-14T18:08:47.099Z,99282.36
2023-04-14T18:11:15.644Z,99284.91
2023-04-14T18:13:43.807Z,99288.05
2023-04-14T18:16:12.421Z,99282.15
2023-04-14T18:18:46.428Z,99286.73
2023-04-14T18:21:17.421Z,99285.05
2023-04-14T18:23:45.539Z,99285.85
2023-04-14T18:28:53.136Z,99285.78
2023-04-14T18:31:23.745Z,99288.20
2023-04-14T18:34:13.248Z,99279.40
2023-04-14T18:36:42.171Z,99280.13
2023-04-14T18:39:10.119Z,99276.00
2023-04-14T18:41:42.598Z,99276.23
2023-04-14T18:44:13.170Z,99273.69
2023-04-14T18:46:41.823Z,99271.70
2023-04-14T18:49:13.632Z,99271.30
2023-04-14T18:51:42.298Z,99272.70
2023-04-14T18:54:10.747Z,99275.23
2023-04-14T18:56:39.482Z,99275.73
2023-04-14T18:59:07.815Z,99266.84
2023-04-14T19:01:39.489Z,99263.27
2023-04-14T19:04:08.199Z,99271.95
2023-04-14T19:06:36.751Z,99266.35
2023-04-14T19:09:05.154Z,99274.14
2023-04-14T19:11:44.313Z,99275.09
2023-04-14T19:14:12.819Z,99274.08
2023-04-14T19:16:40.806Z,99273.34
2023-04-14T19:19:08.809Z,99273.09
2023-04-14T19:21:41.432Z,99273.89
2023-04-14T19:24:09.410Z,99273.21
2023-04-14T19:26:40.737Z,99274.18
2023-04-14T19:29:10.513Z,99279.77
2023-04-14T19:31:39.481Z,99281.76
2023-04-14T19:34:07.744Z,99282.15
2023-04-14T19:36:36.117Z,99282.77
2023-04-14T19:39:05.247Z,99277.34
2023-04-14T19:41:34.624Z,99285.17
2023-04-14T19:44:06.602Z,99278.40
2023-04-14T19:46:36.449Z,99275.61
2023-04-14T19:49:07.787Z,99268.59
2023-04-14T19:51:36.703Z,99266.84
2023-04-14T19:54:09.455Z,99265.05
2023-04-14T19:56:38.333Z,99267.15
2023-04-14T19:59:06.320Z,99273.91
2023-04-14T20:01:34.655Z,99273.42
2023-04-14T20:04:06.507Z,99274.61
2023-04-14T20:06:43.378Z,99282.00
2023-04-14T20:09:12.106Z,99284.11
2023-04-14T20:11:40.141Z,99286.77
2023-04-14T20:14:08.170Z,99288.88
2023-04-14T20:16:40.887Z,99286.15
2023-04-14T20:19:09.388Z,99289.52
2023-04-14T20:21:39.848Z,99286.46
2023-04-14T20:24:08.013Z,99287.96
2023-04-14T20:26:42.777Z,99291.73
2023-04-14T20:29:12.183Z,99296.14
2023-04-14T20:31:41.779Z,99299.90
2023-04-14T20:34:12.830Z,99296.73
2023-04-14T20:36:41.093Z,99297.84
2023-04-14T20:39:09.755Z,99307.30
2023-04-14T20:41:40.717Z,99311.98
2023-04-14T20:44:09.702Z,99321.08
2023-04-14T20:46:38.817Z,99317.77
2023-04-14T20:49:14.154Z,99324.33
2023-04-14T20:51:45.144Z,99323.13
2023-04-14T20:54:13.239Z,99333.89
2023-04-14T20:56:48.554Z,99338.48
2023-04-14T20:59:19.407Z,99341.02
2023-04-14T21:01:48.801Z,99343.67
2023-04-14T21:04:17.891Z,99349.65
2023-04-14T21:06:46.448Z,99354.98
2023-04-14T21:09:14.786Z,99350.16
2023-04-14T21:11:43.213Z,99358.34
2023-04-14T21:15:38.630Z,99358.48
2023-04-14T21:16:59.922Z,99361.45
2023-04-14T21:19:28.509Z,99363.88
2023-04-14T21:22:02.170Z,99370.20
2023-04-14T21:24:30.483Z,99376.06
2023-04-14T21:26:58.521Z,99380.53
2023-04-14T21:29:28.351Z,99383.02
2023-04-14T21:31:58.909Z,99389.27
2023-04-14T21:34:27.474Z,99397.77
2023-04-14T21:36:57.573Z,99408.56
2023-04-14T21:39:28.502Z,99409.93
2023-04-14T21:41:59.323Z,99416.89
2023-04-14T21:44:27.651Z,99415.88
2023-04-14T21:46:55.703Z,99422.91
2023-04-14T21:49:26.425Z,99425.22
2023-04-14T21:51:54.525Z,99427.71
2023-04-14T21:54:22.453Z,99427.39
2023-04-14T21:56:53.258Z,99431.23
2023-04-14T21:59:22.112Z,99431.23
2023-04-14T22:01:50.581Z,99429.16
2023-04-14T22:04:33.051Z,99435.88
2023-04-14T22:07:05.345Z,99435.24
2023-04-14T22:09:36.426Z,99442.68
2023-04-14T22:12:05.115Z,99440.52
2023-04-14T22:14:33.708Z,99439.88
2023-04-14T22:17:04.539Z,99443.55
2023-04-14T22:19:34.244Z,99439.23
2023-04-14T22:22:02.440Z,99450.75
2023-04-14T22:24:30.789Z,99448.20
2023-04-14T22:27:02.314Z,99448.69
2023-04-14T22:29:30.425Z,99454.92
2023-04-14T22:31:58.882Z,99451.65
2023-04-14T22:34:29.014Z,99454.34
2023-04-14T22:36:58.320Z,99457.95
2023-04-14T22:39:29.344Z,99455.39
2023-04-14T22:41:59.862Z,99460.90
2023-04-14T22:44:28.063Z,99457.15
2023-04-14T22:46:56.382Z,99459.38
2023-04-14T22:49:25.348Z,99457.38
2023-04-14T22:51:53.382Z,99459.77
2023-04-14T22:54:23.428Z,99458.88
2023-04-14T22:56:52.322Z,99448.63
2023-04-14T22:59:20.330Z,99462.35
2023-04-14T23:01:51.547Z,99459.80
2023-04-14T23:04:21.897Z,99452.91
2023-04-14T23:06:52.379Z,99452.43
2023-04-14T23:09:21.215Z,99450.27
2023-04-14T23:11:49.556Z,99450.66
2023-04-14T23:14:17.842Z,99448.08
2023-04-14T23:16:47.237Z,99449.20
2023-04-14T23:19:16.689Z,99445.76
2023-04-14T23:21:45.545Z,99438.57
2023-04-14T23:24:16.040Z,99436.42
2023-04-14T23:26:47.245Z,99429.41
2023-04-14T23:29:15.699Z,99429.75
2023-04-14T23:31:46.117Z,99421.44
2023-04-14T23:34:14.441Z,99416.10
2023-04-14T23:36:46.054Z,99414.36
2023-04-14T23:39:14.284Z,99413.34
2023-04-14T23:41:47.776Z,99416.20
2023-04-14T23:44:16.636Z,99422.29
2023-04-14T23:46:45.164Z,99422.75
2023-04-14T23:49:23.989Z,99434.19
2023-04-14T23:52:01.168Z,99433.55
2023-04-14T23:54:31.094Z,99430.20
2023-04-14T23:57:01.224Z,99430.35
2023-04-14T23:59:29.668Z,99419.73
